Time;durP1;ratioP1;P1;durP2;ratioP2;P2;SDS_P1;SDS_P2;PMS_P1;PMS_P2;Temp;Humidity;BMP_temperature;BMP_pressure;BME280_temperature;BME280_humidity;BME280_pressure;Samples;Min_cycle;Max_cycle;Signal;HPM_P1;HPM_P2
2023/01/03 00:01:25;;;;;;;22.40;15.10;;;;;;;6.00;91.10;95932.63;5073041;28;20475;-81
2023/01/03 00:03:53;;;;;;;22.30;16.00;;;;;;;6.00;91.71;95931.78;5072881;28;20534;-81
2023/01/03 00:06:22;;;;;;;21.53;15.43;;;;;;;5.97;91.07;95931.94;5072910;28;20508;-81
2023/01/03 00:08:50;;;;;;;22.33;15.73;;;;;;;5.94;90.94;95935.53;5072817;28;20453;-81
2023/01/03 00:12:22;;;;;;;26.17;18.50;;;;;;;5.93;90.56;95928.66;5073051;28;20454;-81
2023/01/03 00:14:08;;;;;;;29.43;16.50;;;;;;;5.89;91.74;95929.69;5072994;28;20473;-81
2023/01/03 00:16:34;;;;;;;27.87;18.03;;;;;;;5.90;91.28;95923.59;5073126;28;20442;-81
2023/01/03 00:19:06;;;;;;;28.67;15.63;;;;;;;5.87;91.96;95931.53;5072732;28;20453;-81
2023/01/03 00:21:33;;;;;;;22.87;14.37;;;;;;;5.80;91.77;95919.75;5073235;28;20450;-81
2023/01/03 00:24:00;;;;;;;21.20;13.87;;;;;;;5.79;91.36;95938.91;5072752;28;20488;-81
2023/01/03 00:26:26;;;;;;;19.50;13.07;;;;;;;5.75;91.49;95930.38;5072959;28;20446;-82
2023/01/03 00:28:53;;;;;;;18.80;13.30;;;;;;;5.77;92.23;95932.88;5072748;28;20460;-81
2023/01/03 00:31:21;;;;;;;16.23;11.47;;;;;;;5.78;91.98;95931.97;5072707;28;20433;-81
2023/01/03 00:33:48;;;;;;;18.53;12.43;;;;;;;5.79;92.26;95933.69;5072678;28;20450;-81
2023/01/03 00:36:15;;;;;;;19.70;11.30;;;;;;;5.81;91.82;95935.28;5072489;28;20441;-82
2023/01/03 00:38:42;;;;;;;16.73;13.40;;;;;;;5.84;92.57;95936.91;5072559;28;20492;-81
2023/01/03 00:41:10;;;;;;;18.50;13.40;;;;;;;5.85;91.54;95938.59;5072631;28;20442;-81
2023/01/03 00:43:38;;;;;;;21.80;14.80;;;;;;;5.81;91.20;95932.69;5072537;28;20845;-81
2023/01/03 00:46:06;;;;;;;27.90;17.70;;;;;;;5.76;90.89;95933.81;5072614;28;20860;-81
2023/01/03 00:48:34;;;;;;;27.77;19.10;;;;;;;5.70;90.98;95929.75;5072729;28;20442;-81
2023/01/03 00:51:06;;;;;;;30.77;18.80;;;;;;;5.64;90.36;95931.81;5072496;28;20860;-81
2023/01/03 00:53:33;;;;;;;25.10;16.80;;;;;;;5.59;90.36;95927.69;5073074;28;20533;-81
2023/01/03 00:56:03;;;;;;;19.57;13.70;;;;;;;5.57;90.96;95926.91;5072531;28;20827;-80
2023/01/03 00:58:30;;;;;;;17.30;13.30;;;;;;;5.56;91.55;95933.03;5072567;28;20866;-81
2023/01/03 01:01:05;;;;;;;17.67;11.27;;;;;;;5.60;92.54;95928.53;5072722;28;20441;-81
2023/01/03 01:03:31;;;;;;;14.37;10.07;;;;;;;5.64;92.01;95924.84;5072202;28;20543;-81
2023/01/03 01:06:00;;;;;;;14.47;10.50;;;;;;;5.69;92.60;95924.63;5072429;28;20470;-81
2023/01/03 01:08:29;;;;;;;15.50;10.93;;;;;;;5.69;92.33;95928.06;5072559;28;20445;-81
2023/01/03 01:11:02;;;;;;;13.27;10.00;;;;;;;5.72;92.30;95921.88;5072570;28;20470;-81
2023/01/03 01:13:29;;;;;;;16.83;10.83;;;;;;;5.72;93.19;95919.25;5072538;28;20458;-81
2023/01/03 01:16:00;;;;;;;12.67;10.80;;;;;;;5.71;92.34;95917.56;5072368;28;20491;-81
2023/01/03 01:18:30;;;;;;;13.10;10.10;;;;;;;5.70;92.93;95918.50;5053500;28;20454;-81
2023/01/03 01:20:57;;;;;;;15.53;10.63;;;;;;;5.69;92.34;95914.19;5073889;28;20836;-81
2023/01/03 01:23:25;;;;;;;16.57;9.90;;;;;;;5.66;92.29;95915.19;5075915;28;20546;-81
2023/01/03 01:25:52;;;;;;;11.27;9.17;;;;;;;5.71;92.39;95910.59;5075914;28;20460;-81
2023/01/03 01:28:19;;;;;;;15.17;10.90;;;;;;;5.77;93.07;95915.50;5076290;28;20503;-81
2023/01/03 01:30:45;;;;;;;13.30;9.73;;;;;;;5.79;92.22;95912.84;5076037;28;20476;-81
2023/01/03 01:33:12;;;;;;;16.67;11.27;;;;;;;5.79;92.85;95907.66;5075921;28;20499;-81
2023/01/03 01:35:39;;;;;;;16.43;11.60;;;;;;;5.81;92.77;95911.84;5075826;28;20503;-82
2023/01/03 01:38:06;;;;;;;18.90;13.33;;;;;;;5.83;92.38;95909.16;5075563;28;20530;-81
2023/01/03 01:40:34;;;;;;;17.90;12.10;;;;;;;5.85;92.14;95907.34;5076003;28;20441;-81
2023/01/03 01:45:58;;;;;;;18.30;13.93;;;;;;;5.79;91.44;95899.84;5075843;28;20434;-81
2023/01/03 01:48:25;;;;;;;22.80;15.63;;;;;;;5.77;90.38;95905.09;5075890;28;20428;-81
2023/01/03 01:50:56;;;;;;;26.17;16.80;;;;;;;5.74;90.01;95901.78;5075478;28;20449;-81
2023/01/03 01:53:27;;;;;;;26.37;17.30;;;;;;;5.66;89.44;95893.53;5075966;28;20445;-81
2023/01/03 01:55:59;;;;;;;25.23;17.30;;;;;;;5.66;90.05;95896.13;5075587;28;20440;-81
2023/01/03 01:58:28;;;;;;;30.30;17.80;;;;;;;5.58;89.16;95902.56;5075393;28;20859;-81
2023/01/03 02:00:56;;;;;;;28.90;20.43;;;;;;;5.49;89.31;95894.34;5075359;28;20450;-81
2023/01/03 02:03:23;;;;;;;28.47;19.57;;;;;;;5.43;89.26;95898.09;5075214;28;20481;-81
2023/01/03 02:05:53;;;;;;;32.40;21.27;;;;;;;5.32;89.01;95897.78;5075672;28;20452;-81
2023/01/03 02:08:20;;;;;;;32.93;20.53;;;;;;;5.28;89.42;95896.25;5075452;28;20438;-81
2023/01/03 02:11:09;;;;;;;35.67;25.50;;;;;;;5.27;89.94;95899.75;5075090;28;20942;-81
2023/01/03 02:13:46;;;;;;;31.33;23.07;;;;;;;5.25;89.59;95897.25;5075198;28;20938;-81
2023/01/03 02:16:35;;;;;;;34.77;24.90;;;;;;;5.22;89.37;95891.34;5075301;28;20455;-81
2023/01/03 02:19:23;;;;;;;32.87;25.40;;;;;;;5.14;89.05;95893.44;5033026;28;20440;-81
2023/01/03 02:22:20;;;;;;;35.77;24.17;;;;;;;5.15;89.71;95889.91;5032864;28;20826;-81
2023/01/03 02:25:24;;;;;;;29.67;21.70;;;;;;;5.15;88.73;95888.16;5032700;28;20889;-81
2023/01/03 02:28:47;;;;;;;35.17;24.70;;;;;;;5.12;88.27;95890.06;4973905;28;20445;-81
2023/01/03 02:31:24;;;;;;;32.40;24.10;;;;;;;5.07;88.54;95892.91;4935115;29;20447;-82
2023/01/03 02:33:59;;;;;;;37.67;23.67;;;;;;;5.08;89.10;95896.34;4935493;29;20538;-81
2023/01/03 02:36:35;;;;;;;36.40;22.70;;;;;;;5.03;88.60;95883.56;4935287;29;20450;-81
2023/01/03 02:39:10;;;;;;;34.43;25.63;;;;;;;5.02;89.46;95883.63;4889787;29;20530;-81
2023/01/03 02:41:44;;;;;;;38.67;26.20;;;;;;;5.01;90.50;95882.78;4935206;29;20459;-81
2023/01/03 02:44:18;;;;;;;33.37;24.20;;;;;;;4.98;90.50;95886.38;4935129;29;20895;-81
2023/01/03 02:46:50;;;;;;;36.20;22.60;;;;;;;5.01;89.93;95888.00;4935044;29;20443;-81
2023/01/03 02:49:22;;;;;;;33.63;23.80;;;;;;;4.99;89.21;95892.41;4935129;29;20455;-81
2023/01/03 02:51:54;;;;;;;37.37;24.57;;;;;;;4.97;88.98;95889.91;4934943;29;20704;-81
2023/01/03 02:54:24;;;;;;;34.77;23.40;;;;;;;4.94;89.90;95895.25;4935120;29;20546;-81
2023/01/03 02:56:56;;;;;;;38.97;24.00;;;;;;;4.95;90.56;95889.13;4962624;28;20954;-81
2023/01/03 02:59:29;;;;;;;35.67;21.80;;;;;;;4.96;89.57;95890.81;4973241;28;20496;-81
2023/01/03 03:02:01;;;;;;;35.17;21.73;;;;;;;4.95;89.27;95889.13;4973161;28;20441;-81
2023/01/03 03:04:29;;;;;;;30.40;21.20;;;;;;;4.96;90.48;95883.00;4992599;28;20483;-81
2023/01/03 03:07:03;;;;;;;31.10;19.17;;;;;;;4.98;91.18;95880.34;5046552;28;20864;-81
2023/01/03 03:09:30;;;;;;;27.70;18.53;;;;;;;4.96;91.60;95879.56;5074034;28;20439;-81
2023/01/03 03:14:49;;;;;;;23.73;15.33;;;;;;;5.01;91.16;95876.75;5073991;28;20429;-81
2023/01/03 03:17:21;;;;;;;20.67;12.90;;;;;;;5.04;91.20;95882.63;5073808;28;20864;-81
2023/01/03 03:25:32;;;;;;;14.77;11.67;;;;;;;5.02;91.54;95870.63;5073656;28;20429;-81
2023/01/03 03:30:47;;;;;;;25.77;13.37;;;;;;;5.02;91.05;95874.06;5073669;28;20428;-81
2023/01/03 03:33:19;;;;;;;21.43;14.03;;;;;;;4.98;91.60;95878.56;5073516;28;20502;-81
2023/01/03 03:35:50;;;;;;;22.67;13.77;;;;;;;4.98;90.77;95878.56;5073601;28;20449;-81
2023/01/03 03:38:24;;;;;;;26.50;14.13;;;;;;;4.98;90.80;95878.56;5073522;28;20476;-81
2023/01/03 03:46:57;;;;;;;24.87;16.10;;;;;;;4.79;90.49;95888.13;5073451;28;20437;-81
2023/01/03 03:49:38;;;;;;;25.88;18.40;;;;;;;4.78;89.54;95896.84;5072654;28;20990;-81
2023/01/03 03:52:08;;;;;;;26.50;19.43;;;;;;;4.74;89.62;95889.28;5041463;28;20213;-81
2023/01/03 03:54:38;;;;;;;31.43;21.60;;;;;;;4.68;89.70;95895.59;5073132;28;20953;-81
2023/01/03 03:57:10;;;;;;;36.73;20.77;;;;;;;4.70;90.12;95887.72;5073208;28;20433;-81
2023/01/03 03:59:39;;;;;;;27.83;19.83;;;;;;;4.68;90.64;95893.00;5055097;28;20441;-81
2023/01/03 04:02:08;;;;;;;26.67;17.27;;;;;;;4.70;90.24;95885.97;5072884;28;20448;-81
2023/01/03 04:04:40;;;;;;;24.20;17.07;;;;;;;4.72;90.76;95891.94;5073150;28;20530;-81
2023/01/03 04:07:07;;;;;;;24.30;18.63;;;;;;;4.71;90.37;95892.84;5073067;28;21000;-81
2023/01/03 04:09:34;;;;;;;30.00;18.27;;;;;;;4.73;90.23;95888.44;5037876;28;20509;-81
2023/01/03 04:12:01;;;;;;;24.67;16.60;;;;;;;4.74;91.34;95884.91;5073074;28;20935;-81
2023/01/03 04:14:27;;;;;;;23.40;15.90;;;;;;;4.73;91.15;95880.63;5072883;28;20993;-81
2023/01/03 04:16:54;;;;;;;20.70;14.97;;;;;;;4.74;91.73;95884.06;5073039;28;20931;-81
2023/01/03 04:19:21;;;;;;;16.43;11.87;;;;;;;4.72;91.95;95878.94;5072984;28;20498;-81
2023/01/03 04:21:49;;;;;;;19.43;13.50;;;;;;;4.74;91.57;95879.72;5072786;28;20440;-81
2023/01/03 04:24:19;;;;;;;14.93;11.10;;;;;;;4.70;92.45;95866.94;5072821;28;20895;-81
2023/01/03 04:26:46;;;;;;;18.03;10.43;;;;;;;4.76;91.57;95882.25;5072694;28;20497;-81
2023/01/03 04:29:12;;;;;;;18.33;11.70;;;;;;;4.77;92.51;95879.56;5072780;28;20488;-81
2023/01/03 04:31:39;;;;;;;13.10;9.10;;;;;;;4.79;92.56;95872.53;5072892;28;20497;-81
2023/01/03 04:34:06;;;;;;;13.47;10.03;;;;;;;4.84;92.54;95874.91;5072539;28;20453;-81
2023/01/03 04:36:33;;;;;;;15.53;11.07;;;;;;;4.84;92.29;95878.34;5072892;28;20441;-81
2023/01/03 04:39:01;;;;;;;11.90;9.00;;;;;;;4.79;91.61;95880.34;5072838;28;20816;-81
2023/01/03 04:41:28;;;;;;;17.13;10.73;;;;;;;4.75;91.51;95886.59;5072677;28;20449;-81
2023/01/03 04:44:03;;;;;;;17.23;13.63;;;;;;;4.60;91.81;95889.88;5072313;28;20476;-81
2023/01/03 04:46:31;;;;;;;25.23;18.93;;;;;;;4.53;90.07;95906.66;5073039;28;20451;-81
2023/01/03 04:48:58;;;;;;;44.47;28.40;;;;;;;4.37;90.58;95913.47;5072589;28;20444;-81
2023/01/03 04:51:26;;;;;;;60.93;39.67;;;;;;;4.18;90.39;95916.88;5072629;28;20838;-81
2023/01/03 04:53:53;;;;;;;226.50;54.00;;;;;;;4.05;91.18;95913.13;5072309;28;20445;-81
2023/01/03 04:56:25;;;;;;;51.20;34.00;;;;;;;4.03;91.81;95917.50;5076236;28;20440;-81
2023/01/03 04:58:52;;;;;;;63.77;35.40;;;;;;;3.95;92.56;95919.59;5076678;28;20444;-81
2023/01/03 05:01:19;;;;;;;66.13;39.57;;;;;;;3.92;92.05;95919.72;5076557;28;20923;-81
2023/01/03 05:03:46;;;;;;;64.77;44.10;;;;;;;3.91;91.53;95928.44;5076748;28;20448;-81
2023/01/03 05:06:14;;;;;;;71.33;43.10;;;;;;;3.89;91.66;95930.25;5040985;28;20501;-81
2023/01/03 05:08:40;;;;;;;73.17;44.57;;;;;;;3.93;91.95;95924.84;5076289;28;20444;-81
2023/01/03 05:11:07;;;;;;;67.90;39.80;;;;;;;3.97;90.87;95928.16;5076340;28;20445;-81
2023/01/03 05:13:36;;;;;;;62.60;40.53;;;;;;;3.99;90.84;95931.53;5076316;28;20923;-81
2023/01/03 05:16:07;;;;;;;59.60;38.27;;;;;;;4.03;90.75;95933.94;5076308;28;20432;-81
2023/01/03 05:18:34;;;;;;;64.87;39.10;;;;;;;4.06;91.17;95927.81;5076344;28;20445;-81
2023/01/03 05:26:39;;;;;;;70.63;40.80;;;;;;;4.14;90.53;95928.31;5076104;28;20520;-81
2023/01/03 05:29:10;;;;;;;69.87;43.23;;;;;;;4.18;90.75;95926.41;5075861;28;20445;-81
2023/01/03 05:31:36;;;;;;;73.10;44.60;;;;;;;4.20;90.68;95935.81;5075822;28;20993;-81
2023/01/03 05:34:03;;;;;;;58.33;37.70;;;;;;;4.19;90.87;95936.75;5075956;28;20849;-81
2023/01/03 05:36:30;;;;;;;60.90;42.10;;;;;;;4.15;91.49;95930.00;5075872;28;20506;-81
2023/01/03 05:38:57;;;;;;;72.67;43.20;;;;;;;4.00;91.60;95928.03;5040355;28;20473;-81
2023/01/03 05:44:09;;;;;;;81.77;43.83;;;;;;;3.92;91.61;95924.94;5075491;28;20483;-81
2023/01/03 05:46:36;;;;;;;82.00;45.43;;;;;;;3.89;91.68;95919.88;5075739;28;20951;-81
2023/01/03 05:49:03;;;;;;;79.57;40.40;;;;;;;3.87;91.79;95921.69;5075749;28;20996;-81
2023/01/03 05:51:30;;;;;;;72.83;42.30;;;;;;;3.85;91.89;95923.50;5075659;28;20509;-81
2023/01/03 05:53:56;;;;;;;89.20;49.77;;;;;;;3.70;91.54;95925.81;5075371;28;20860;-81
2023/01/03 05:56:23;;;;;;;83.77;51.67;;;;;;;3.68;90.38;95927.63;5075130;28;20433;-81
2023/01/03 05:58:50;;;;;;;87.90;53.07;;;;;;;3.58;90.96;95931.53;5075327;28;20445;-81
2023/01/03 06:01:18;;;;;;;97.57;56.80;;;;;;;3.52;90.04;95936.97;5075202;28;20876;-81
2023/01/03 06:03:46;;;;;;;105.60;60.40;;;;;;;3.46;89.79;95939.78;5075282;28;20453;-81
2023/01/03 06:06:14;;;;;;;128.70;64.60;;;;;;;3.31;90.21;95953.38;5074472;28;20444;-81
2023/01/03 06:08:41;;;;;;;106.90;60.70;;;;;;;3.06;91.41;95941.38;5075164;28;20445;-81
2023/01/03 06:11:10;;;;;;;130.17;64.67;;;;;;;2.83;92.15;95946.56;5075053;28;20507;-81
2023/01/03 06:13:36;;;;;;;98.90;53.07;;;;;;;2.70;93.66;95947.94;5075044;28;20445;-81
2023/01/03 06:18:50;;;;;;;118.73;58.87;;;;;;;2.76;92.85;95950.31;5075142;28;20428;-81
2023/01/03 06:21:17;;;;;;;111.27;63.10;;;;;;;2.80;93.46;95950.13;5074939;28;20452;-81
2023/01/03 06:23:46;;;;;;;116.57;60.70;;;;;;;2.84;93.44;95945.66;5074993;28;20451;-81
2023/01/03 06:26:13;;;;;;;109.30;56.80;;;;;;;2.87;93.37;95958.50;5074926;28;20575;-81
2023/01/03 06:28:40;;;;;;;93.90;53.73;;;;;;;2.93;93.70;95957.47;5075009;28;20498;-81
2023/01/03 06:31:06;;;;;;;95.43;53.13;;;;;;;3.06;94.83;95956.91;5074876;28;20437;-81
2023/01/03 06:33:33;;;;;;;101.13;55.10;;;;;;;3.22;93.47;95964.13;5075004;28;20457;-81
2023/01/03 06:36:04;;;;;;;94.33;56.83;;;;;;;3.36;93.23;95964.41;5074675;28;20449;-81
2023/01/03 06:38:31;;;;;;;119.37;65.90;;;;;;;3.47;93.65;95959.66;5074636;28;20567;-81
2023/01/03 06:40:58;;;;;;;104.33;60.17;;;;;;;3.56;92.55;95945.47;5074669;28;20957;-81
2023/01/03 06:43:25;;;;;;;120.70;60.83;;;;;;;3.66;91.78;95947.63;5074636;28;20445;-81
2023/01/03 06:54:19;;;;;;;106.87;55.47;;;;;;;3.86;90.51;95953.75;5073772;28;20795;-81
2023/01/03 06:56:46;;;;;;;107.07;58.87;;;;;;;3.87;90.20;95960.63;5073550;28;20488;-81
2023/01/03 06:59:13;;;;;;;98.97;55.97;;;;;;;3.72;90.77;95959.50;5073748;28;20931;-81
2023/01/03 07:01:40;;;;;;;158.10;83.00;;;;;;;3.48;92.04;95961.34;5073561;28;20449;-81
2023/01/03 07:04:07;;;;;;;147.57;84.40;;;;;;;3.31;93.54;95967.19;5073399;28;20445;-81
2023/01/03 07:06:35;;;;;;;148.20;82.57;;;;;;;3.32;94.08;95974.06;5073934;28;20451;-81
2023/01/03 07:09:02;;;;;;;179.50;93.70;;;;;;;3.35;94.77;95965.31;5073792;28;20814;-81
2023/01/03 07:11:29;;;;;;;183.30;102.60;;;;;;;3.48;95.72;95981.25;5073639;28;20861;-81
2023/01/03 07:13:57;;;;;;;161.83;94.27;;;;;;;3.52;95.02;95985.41;5073796;28;20445;-81
2023/01/03 07:16:25;;;;;;;151.30;87.70;;;;;;;3.59;94.26;95989.44;5073773;28;20437;-81
2023/01/03 07:18:51;;;;;;;146.40;80.37;;;;;;;3.69;94.55;95986.41;5072754;28;20805;-81
2023/01/03 07:21:18;;;;;;;130.07;76.67;;;;;;;3.81;93.19;95986.84;5073873;28;20791;-81
2023/01/03 07:23:47;;;;;;;126.40;74.83;;;;;;;3.96;92.79;95994.00;5073469;28;20448;-81
2023/01/03 07:26:13;;;;;;;130.03;74.80;;;;;;;4.09;91.55;95995.19;5073229;28;20496;-81
2023/01/03 07:28:40;;;;;;;131.63;78.97;;;;;;;4.21;90.57;95997.25;5073699;28;20440;-81
2023/01/03 07:31:07;;;;;;;135.93;76.77;;;;;;;4.35;91.35;95996.69;5073700;28;20449;-81
2023/01/03 07:33:36;;;;;;;131.33;80.00;;;;;;;4.46;91.09;95993.63;5073480;28;20472;-81
2023/01/03 07:36:04;;;;;;;124.93;80.13;;;;;;;4.61;90.77;95998.13;5073278;28;20448;-81
2023/01/03 07:38:31;;;;;;;157.33;87.97;;;;;;;4.77;90.52;96006.97;5073320;28;20473;-81
2023/01/03 07:41:00;;;;;;;172.33;85.33;;;;;;;4.94;90.98;96007.06;5073256;28;20444;-81
2023/01/03 07:43:38;;;;;;;164.33;83.27;;;;;;;5.03;91.03;95994.56;5054815;28;20429;-81
2023/01/03 07:46:10;;;;;;;141.80;80.60;;;;;;;5.15;90.85;95994.81;5073458;28;20480;-81
2023/01/03 07:48:41;;;;;;;123.90;71.00;;;;;;;5.23;90.95;95994.50;5073118;28;20441;-81
2023/01/03 07:51:09;;;;;;;114.80;64.70;;;;;;;5.31;90.57;95994.97;5073476;28;20433;-81
2023/01/03 07:53:36;;;;;;;118.07;63.50;;;;;;;5.34;90.85;95994.00;5073256;28;20487;-81
2023/01/03 07:56:09;;;;;;;121.07;72.37;;;;;;;5.31;92.20;96000.19;5073158;28;20498;-81
2023/01/03 07:58:36;;;;;;;120.67;71.80;;;;;;;5.33;92.01;96000.13;5072779;28;20510;-81
2023/01/03 08:01:05;;;;;;;166.97;95.50;;;;;;;5.33;92.49;95994.91;5072966;28;20453;-81
2023/01/03 08:03:32;;;;;;;164.30;93.60;;;;;;;5.34;93.13;95994.84;5072745;28;20503;-81
2023/01/03 08:06:05;;;;;;;158.30;91.80;;;;;;;5.45;92.09;95992.56;5072465;28;20481;-81
2023/01/03 08:08:32;;;;;;;151.40;90.60;;;;;;;5.43;92.50;95994.41;5072782;28;20859;-81
2023/01/03 08:13:47;;;;;;;161.77;93.53;;;;;;;5.52;93.13;95999.19;5031240;28;20426;-80
2023/01/03 08:16:17;;;;;;;160.33;95.37;;;;;;;5.61;92.59;95997.91;5030672;28;20458;-80
2023/01/03 08:18:44;;;;;;;145.93;92.27;;;;;;;5.73;92.59;95996.47;5030954;28;20436;-80
2023/01/03 08:21:14;;;;;;;138.47;85.57;;;;;;;5.83;93.38;95990.75;5030882;28;20793;-80
2023/01/03 08:23:42;;;;;;;131.33;82.83;;;;;;;5.92;92.88;95996.47;5030704;28;20451;-80
2023/01/03 08:26:11;;;;;;;132.33;80.73;;;;;;;6.03;93.82;95992.41;5030648;28;20487;-80
2023/01/03 08:28:41;;;;;;;135.33;77.50;;;;;;;6.10;93.67;95991.19;5030562;28;20449;-80
2023/01/03 08:31:12;;;;;;;139.87;78.50;;;;;;;6.16;94.17;95990.88;5030049;28;20447;-81
2023/01/03 08:33:43;;;;;;;143.37;82.70;;;;;;;6.18;94.27;95988.19;5030463;28;20440;-81
2023/01/03 08:36:12;;;;;;;135.00;82.93;;;;;;;6.18;94.89;95985.59;5030434;28;20452;-81
2023/01/03 08:38:44;;;;;;;114.90;75.73;;;;;;;6.26;95.01;95985.19;5030343;28;20995;-81
2023/01/03 08:41:16;;;;;;;79.33;52.83;;;;;;;6.27;95.72;95981.69;5030221;28;20454;-81
2023/01/03 08:43:45;;;;;;;82.10;52.90;;;;;;;6.29;97.01;95979.84;5030415;28;20448;-81
2023/01/03 08:46:16;;;;;;;109.10;60.90;;;;;;;6.30;96.52;95984.13;5030265;28;20484;-81
2023/01/03 08:48:43;;;;;;;91.70;55.67;;;;;;;6.28;97.78;95991.19;5030350;28;20442;-81
2023/01/03 08:51:10;;;;;;;79.63;47.77;;;;;;;6.12;98.90;95981.53;5017045;28;20779;-81
2023/01/03 08:53:37;;;;;;;75.70;44.70;;;;;;;6.21;99.23;95978.47;5072479;28;20450;-81
2023/01/03 08:56:05;;;;;;;70.30;44.10;;;;;;;6.29;99.29;95980.69;5072692;28;20501;-81
2023/01/03 08:58:31;;;;;;;89.50;48.50;;;;;;;6.30;99.54;95981.50;5072345;28;20450;-81
2023/01/03 09:01:01;;;;;;;77.30;46.30;;;;;;;6.12;100.00;95984.16;5072665;28;20447;-81
2023/01/03 09:03:29;;;;;;;75.30;43.30;;;;;;;5.86;100.00;95977.56;5072237;28;20450;-81
2023/01/03 09:05:59;;;;;;;69.23;42.60;;;;;;;5.99;100.00;95980.44;5072305;28;20551;-81
2023/01/03 09:08:26;;;;;;;65.93;44.60;;;;;;;6.09;100.00;95970.44;5072404;28;20446;-80
2023/01/03 09:10:53;;;;;;;64.23;45.40;;;;;;;6.17;100.00;95971.72;5053481;28;20444;-80
2023/01/03 09:13:19;;;;;;;62.20;42.63;;;;;;;6.27;100.00;95961.66;5072458;28;20447;-80
2023/01/03 09:15:46;;;;;;;66.87;43.77;;;;;;;6.33;100.00;95966.56;5072209;28;20455;-81
2023/01/03 09:18:13;;;;;;;70.30;43.23;;;;;;;6.52;100.00;95962.09;5072078;28;20452;-80
2023/01/03 09:20:41;;;;;;;75.63;47.63;;;;;;;6.56;100.00;95961.94;5072142;28;20442;-80
2023/01/03 09:23:08;;;;;;;90.00;51.07;;;;;;;6.59;99.98;95954.78;5072167;28;20442;-80
2023/01/03 09:25:35;;;;;;;78.33;45.97;;;;;;;6.63;100.00;95955.47;5071905;28;20545;-80
2023/01/03 09:28:02;;;;;;;75.83;46.37;;;;;;;6.74;99.84;95950.56;5072153;28;20492;-80
2023/01/03 09:30:28;;;;;;;64.80;42.80;;;;;;;6.82;99.46;95949.22;5072097;28;20449;-80
2023/01/03 09:32:55;;;;;;;63.33;43.40;;;;;;;6.90;99.24;95951.41;5072198;28;20943;-80
2023/01/03 09:35:22;;;;;;;67.60;42.57;;;;;;;6.95;98.79;95935.53;5071934;28;20447;-80
2023/01/03 09:37:50;;;;;;;63.33;42.70;;;;;;;7.09;98.14;95935.63;5072114;28;20458;-80
2023/01/03 09:40:17;;;;;;;60.87;39.80;;;;;;;7.02;98.67;95929.06;5053025;28;20844;-81
2023/01/03 09:45:31;;;;;;;55.00;37.80;;;;;;;7.42;96.63;95925.94;5075579;28;20489;-80
2023/01/03 09:47:59;;;;;;;65.80;40.60;;;;;;;7.57;96.37;95920.78;5075819;28;20448;-80
2023/01/03 09:50:29;;;;;;;66.73;43.77;;;;;;;7.41;95.86;95920.78;5075501;28;20447;-80
2023/01/03 10:04:47;;;;;;;60.43;40.10;;;;;;;7.59;95.58;95898.88;5075695;28;20438;-80
2023/01/03 10:07:26;;;;;;;60.83;40.20;;;;;;;7.44;95.22;95897.97;5075325;28;21013;-80
2023/01/03 10:10:05;;;;;;;70.13;46.60;;;;;;;7.64;94.98;95896.00;5057716;28;20447;-81
2023/01/03 10:12:42;;;;;;;88.40;49.10;;;;;;;7.67;94.13;95894.03;5075513;28;20459;-81
2023/01/03 10:15:20;;;;;;;77.63;47.70;;;;;;;7.70;93.63;95890.41;5075321;28;20505;-81
2023/01/03 10:17:57;;;;;;;79.37;49.40;;;;;;;7.80;93.27;95886.34;5075296;28;20898;-81
2023/01/03 10:20:42;;;;;;;73.50;45.87;;;;;;;7.62;93.30;95885.63;5039749;28;20505;-81
2023/01/03 10:23:10;;;;;;;72.23;44.40;;;;;;;7.80;93.44;95880.25;5075063;28;20524;-81
2023/01/03 10:25:41;;;;;;;68.23;46.97;;;;;;;7.91;93.26;95878.72;5075120;28;21005;-81
2023/01/03 10:28:17;;;;;;;65.60;43.73;;;;;;;7.95;92.78;95874.16;5075011;28;20508;-81
2023/01/03 10:31:12;;;;;;;71.93;45.13;;;;;;;8.21;92.44;95868.22;5074985;28;20501;-81
2023/01/03 10:33:40;;;;;;;66.07;44.13;;;;;;;8.29;91.56;95868.59;5076002;28;20449;-81
2023/01/03 10:36:08;;;;;;;69.83;45.30;;;;;;;8.33;91.38;95854.44;5074890;28;20444;-81
2023/01/03 10:38:35;;;;;;;72.47;44.20;;;;;;;8.32;91.32;95857.97;5074646;28;20487;-80
2023/01/03 10:41:05;;;;;;;68.23;43.10;;;;;;;8.34;90.95;95850.06;5074840;28;20495;-81
2023/01/03 10:43:37;;;;;;;56.60;37.87;;;;;;;8.25;92.04;95850.59;5074823;28;20939;-81
2023/01/03 10:46:06;;;;;;;61.50;40.80;;;;;;;8.42;91.40;95842.59;5074430;28;20484;-81
2023/01/03 10:48:38;;;;;;;58.57;41.73;;;;;;;8.50;91.42;95845.59;5074629;28;20441;-81
2023/01/03 10:51:06;;;;;;;54.77;37.23;;;;;;;8.69;90.56;95834.84;5074636;28;20441;-81
2023/01/03 10:53:41;;;;;;;60.50;37.53;;;;;;;8.69;90.46;95835.69;5039339;28;20445;-81
2023/01/03 10:56:14;;;;;;;55.77;36.60;;;;;;;8.73;89.17;95825.00;5074508;28;20545;-81
2023/01/03 10:58:41;;;;;;;56.20;37.70;;;;;;;8.83;89.45;95819.09;5074326;28;20994;-81
2023/01/03 11:01:20;;;;;;;50.37;34.67;;;;;;;8.77;89.18;95822.09;5074368;28;20445;-81
2023/01/03 11:04:07;;;;;;;52.20;36.03;;;;;;;8.85;89.76;95813.75;5074332;28;20445;-81
2023/01/03 11:06:34;;;;;;;52.47;35.80;;;;;;;8.99;89.17;95811.13;5074542;28;20658;-81
2023/01/03 11:09:03;;;;;;;54.83;37.80;;;;;;;9.12;89.33;95812.00;5074104;28;20456;-81
2023/01/03 11:11:33;;;;;;;56.00;39.00;;;;;;;9.15;88.53;95806.56;5074215;28;20445;-81
2023/01/03 11:14:19;;;;;;;53.30;37.07;;;;;;;9.04;89.45;95803.81;5073945;28;20455;-81
2023/01/03 11:16:53;;;;;;;61.63;40.53;;;;;;;9.18;89.56;95798.50;5038537;28;20818;-81
2023/01/03 11:19:20;;;;;;;54.53;38.80;;;;;;;9.24;88.95;95800.72;5073640;28;20449;-81
2023/01/03 11:21:53;;;;;;;55.40;38.60;;;;;;;9.37;88.51;95792.94;5074067;28;20474;-80
2023/01/03 11:24:35;;;;;;;59.57;41.03;;;;;;;9.45;88.23;95788.00;5074019;28;20442;-81
2023/01/03 11:27:17;;;;;;;67.80;40.80;;;;;;;9.52;88.31;95788.44;5073981;28;20491;-81
2023/01/03 11:30:01;;;;;;;59.03;36.97;;;;;;;9.57;87.34;95778.53;5073459;28;20931;-80
2023/01/03 11:32:43;;;;;;;60.33;38.63;;;;;;;9.63;86.91;95770.25;5074034;28;20445;-80
2023/01/03 11:35:39;;;;;;;62.50;40.50;;;;;;;9.74;86.41;95770.34;5073798;28;20446;-80
2023/01/03 11:38:23;;;;;;;56.33;39.57;;;;;;;9.80;86.20;95764.69;5031055;28;20540;-80
2023/01/03 11:41:03;;;;;;;50.93;36.73;;;;;;;9.77;86.48;95761.44;5031429;28;20934;-80
2023/01/03 11:43:52;;;;;;;60.70;41.60;;;;;;;9.92;86.54;95761.25;5031150;28;20924;-80
2023/01/03 11:46:39;;;;;;;57.80;40.47;;;;;;;10.08;84.81;95754.94;4982116;28;20491;-80
2023/01/03 11:49:18;;;;;;;57.00;38.03;;;;;;;10.19;85.56;95748.03;5031334;28;20498;-80
2023/01/03 11:51:59;;;;;;;60.50;40.33;;;;;;;10.31;84.99;95748.13;5031239;28;20452;-81
2023/01/03 11:54:58;;;;;;;61.90;38.77;;;;;;;10.49;83.83;95747.69;5031149;28;20954;-80
2023/01/03 11:57:35;;;;;;;54.57;39.80;;;;;;;10.54;83.63;95745.56;4972239;28;20513;-80
2023/01/03 12:00:17;;;;;;;61.63;40.57;;;;;;;10.66;83.22;95740.38;4939900;28;20438;-81
2023/01/03 12:03:07;;;;;;;65.50;38.90;;;;;;;10.76;81.73;95741.44;4972214;28;20861;-81
2023/01/03 12:05:48;;;;;;;58.63;40.63;;;;;;;10.89;81.63;95742.19;4971675;28;21065;-81
2023/01/03 12:08:46;;;;;;;58.10;37.97;;;;;;;10.89;82.47;95744.81;4972056;28;20460;-81
2023/01/03 12:11:27;;;;;;;58.77;38.23;;;;;;;11.00;82.03;95744.91;4972298;28;20456;-81
2023/01/03 12:14:03;;;;;;;63.03;37.23;;;;;;;11.05;82.76;95732.28;4972021;28;20435;-80
2023/01/03 12:16:37;;;;;;;53.50;36.90;;;;;;;11.09;82.54;95735.50;5030659;28;20556;-81
2023/01/03 12:19:11;;;;;;;59.63;36.77;;;;;;;11.23;81.97;95734.47;5030790;28;20454;-81
2023/01/03 12:21:40;;;;;;;53.67;38.47;;;;;;;11.30;81.72;95730.47;5030624;28;20449;-81
2023/01/03 12:24:14;;;;;;;71.00;40.53;;;;;;;11.42;81.16;95727.75;5030541;28;20941;-81
2023/01/03 12:26:43;;;;;;;51.00;36.80;;;;;;;11.46;80.11;95729.19;5030485;28;20485;-81
2023/01/03 12:29:16;;;;;;;55.33;36.57;;;;;;;11.42;79.96;95721.66;5030569;28;20456;-81
2023/01/03 12:31:49;;;;;;;57.77;40.17;;;;;;;11.53;80.27;95721.69;5030827;28;20450;-81
2023/01/03 12:34:25;;;;;;;56.87;38.63;;;;;;;11.69;80.69;95726.63;5043101;28;20458;-81
2023/01/03 12:37:03;;;;;;;74.30;44.90;;;;;;;11.83;79.69;95725.59;5072988;28;20491;-81